Time;durP1;ratioP1;P1;durP2;ratioP2;P2;SDS_P1;SDS_P2;PMS_P1;PMS_P2;Temp;Humidity;BMP_temperature;BMP_pressure;BME280_temperature;BME280_humidity;BME280_pressure;Samples;Min_cycle;Max_cycle;Signal;HPM_P1;HPM_P2
2024/01/29 00:02:18;;;;;;;2.60;1.87;;;;;;;;;;6116994;29;20335;-59
2024/01/29 00:05:22;;;;;;;5.77;1.80;;;;;;;;;;6115910;29;20304;-59
2024/01/29 00:08:26;;;;;;;1.67;1.57;;;;;;;;;;6115631;29;20307;-58
2024/01/29 00:11:30;;;;;;;2.67;1.93;;;;;;;;;;6132729;28;20301;-58
2024/01/29 00:14:35;;;;;;;5.57;1.70;;;;;;;;;;6139861;28;20301;-59
2024/01/29 00:17:39;;;;;;;2.77;1.47;;;;;;;;;;6140692;28;20295;-58
2024/01/29 00:20:43;;;;;;;2.97;1.50;;;;;;;;;;6139736;28;20493;-58
2024/01/29 00:23:47;;;;;;;3.30;1.60;;;;;;;;;;6162204;28;20317;-57
2024/01/29 00:26:51;;;;;;;3.33;1.37;;;;;;;;;;6187513;28;20597;-57
2024/01/29 00:29:56;;;;;;;1.40;1.40;;;;;;;;;;6187272;28;20281;-58
2024/01/29 00:33:00;;;;;;;2.23;1.57;;;;;;;;;;6186989;28;20291;-57
2024/01/29 00:36:05;;;;;;;1.70;1.57;;;;;;;;;;6186706;28;20309;-57
2024/01/29 00:39:10;;;;;;;3.77;1.83;;;;;;;;;;6186101;28;20303;-58
2024/01/29 00:42:13;;;;;;;2.10;1.50;;;;;;;;;;6186860;28;20573;-58
2024/01/29 00:45:20;;;;;;;4.13;1.63;;;;;;;;;;6186458;28;20317;-61
2024/01/29 00:48:25;;;;;;;3.40;1.73;;;;;;;;;;6186356;28;20305;-58
2024/01/29 00:51:29;;;;;;;1.60;1.50;;;;;;;;;;6168864;28;20300;-58
2024/01/29 00:54:33;;;;;;;1.97;1.87;;;;;;;;;;6186368;28;20321;-58
2024/01/29 00:57:37;;;;;;;2.10;1.77;;;;;;;;;;6186697;28;20308;-58
2024/01/29 01:00:42;;;;;;;2.40;2.00;;;;;;;;;;6185935;28;20585;-57
2024/01/29 01:03:47;;;;;;;3.17;1.53;;;;;;;;;;6186471;28;20538;-58
2024/01/29 01:06:51;;;;;;;5.83;1.70;;;;;;;;;;6186887;28;20296;-58
2024/01/29 01:09:55;;;;;;;4.57;1.90;;;;;;;;;;6185906;28;20295;-58
2024/01/29 01:12:59;;;;;;;3.27;1.67;;;;;;;;;;6186248;28;20488;-57
2024/01/29 01:16:06;;;;;;;2.57;1.67;;;;;;;;;;6186403;28;20300;-58
2024/01/29 01:19:10;;;;;;;1.50;1.40;;;;;;;;;;6186153;28;20367;-57
2024/01/29 01:22:14;;;;;;;5.30;1.87;;;;;;;;;;6186126;28;20297;-56
2024/01/29 01:25:19;;;;;;;3.23;1.57;;;;;;;;;;6185208;28;20296;-57
2024/01/29 01:28:22;;;;;;;2.53;1.63;;;;;;;;;;6185763;28;20296;-57
2024/01/29 01:31:28;;;;;;;3.73;1.60;;;;;;;;;;6186135;28;20294;-58
2024/01/29 01:34:32;;;;;;;3.83;1.83;;;;;;;;;;6185978;28;20304;-57
2024/01/29 01:37:36;;;;;;;2.00;1.63;;;;;;;;;;6186205;28;20301;-57
2024/01/29 01:40:40;;;;;;;2.80;1.60;;;;;;;;;;6185213;28;20550;-58
2024/01/29 01:43:43;;;;;;;1.93;1.63;;;;;;;;;;6185729;28;20292;-57
2024/01/29 01:46:49;;;;;;;2.10;1.77;;;;;;;;;;6185773;28;20476;-57
2024/01/29 01:49:53;;;;;;;5.33;2.10;;;;;;;;;;6184073;28;20294;-57
2024/01/29 01:52:57;;;;;;;1.80;1.70;;;;;;;;;;6185432;28;20380;-58
2024/01/29 01:56:02;;;;;;;2.47;1.63;;;;;;;;;;6185731;28;20296;-58
2024/01/29 01:59:08;;;;;;;5.00;2.00;;;;;;;;;;6185257;28;20301;-58
2024/01/29 02:02:14;;;;;;;2.57;1.70;;;;;;;;;;6185508;28;20593;-57
2024/01/29 02:05:18;;;;;;;1.90;1.67;;;;;;;;;;6184002;28;20312;-58
2024/01/29 02:08:22;;;;;;;3.47;1.90;;;;;;;;;;6183738;28;20610;-58
2024/01/29 02:11:26;;;;;;;3.60;2.10;;;;;;;;;;6185027;28;20311;-58
2024/01/29 02:14:30;;;;;;;3.07;1.63;;;;;;;;;;6184506;28;20301;-58
2024/01/29 02:17:35;;;;;;;3.13;1.50;;;;;;;;;;6185287;28;20299;-58
2024/01/29 02:20:39;;;;;;;3.40;1.63;;;;;;;;;;6184278;28;20485;-56
2024/01/29 02:23:45;;;;;;;1.90;1.70;;;;;;;;;;6183305;28;20297;-58
2024/01/29 02:26:50;;;;;;;2.83;1.70;;;;;;;;;;6184182;28;20397;-57
2024/01/29 02:29:54;;;;;;;3.30;1.80;;;;;;;;;;6185597;28;20289;-57
2024/01/29 02:32:58;;;;;;;2.53;1.63;;;;;;;;;;6184464;28;20352;-57
2024/01/29 02:36:02;;;;;;;1.73;1.70;;;;;;;;;;6184784;28;20301;-58
2024/01/29 02:39:08;;;;;;;1.93;1.80;;;;;;;;;;6184096;28;20297;-58
2024/01/29 02:42:12;;;;;;;6.67;2.00;;;;;;;;;;6184886;28;20309;-57
2024/01/29 02:45:16;;;;;;;3.00;1.90;;;;;;;;;;6184327;28;20302;-56
2024/01/29 02:48:20;;;;;;;2.47;1.70;;;;;;;;;;6183899;28;20357;-58
2024/01/29 02:51:24;;;;;;;3.40;1.77;;;;;;;;;;6185045;28;20292;-57
2024/01/29 02:54:29;;;;;;;3.53;1.83;;;;;;;;;;6184338;28;20304;-57
2024/01/29 02:57:34;;;;;;;4.63;2.10;;;;;;;;;;6184380;28;20471;-57
2024/01/29 03:00:38;;;;;;;1.87;1.77;;;;;;;;;;6184031;28;20347;-57
2024/01/29 03:03:42;;;;;;;3.07;1.73;;;;;;;;;;6183830;28;20297;-59
2024/01/29 03:06:46;;;;;;;1.80;1.70;;;;;;;;;;6183516;28;20297;-57
2024/01/29 03:09:51;;;;;;;2.33;1.93;;;;;;;;;;6184099;28;20293;-58
2024/01/29 03:12:57;;;;;;;3.33;1.83;;;;;;;;;;6183819;28;20305;-57
2024/01/29 03:16:01;;;;;;;7.63;2.00;;;;;;;;;;6184367;28;20292;-57
2024/01/29 03:19:07;;;;;;;2.40;2.00;;;;;;;;;;6183824;28;20479;-57
2024/01/29 03:22:11;;;;;;;5.80;1.80;;;;;;;;;;6189160;28;20305;-58
2024/01/29 03:25:16;;;;;;;3.63;1.83;;;;;;;;;;6188506;28;20313;-58
2024/01/29 03:28:20;;;;;;;2.90;1.80;;;;;;;;;;6188740;28;20297;-58
2024/01/29 03:31:24;;;;;;;2.77;1.87;;;;;;;;;;6188901;28;20295;-57
2024/01/29 03:34:29;;;;;;;6.73;1.80;;;;;;;;;;6188519;28;20427;-57
2024/01/29 03:37:33;;;;;;;2.63;1.70;;;;;;;;;;6188848;28;20312;-57
2024/01/29 03:40:38;;;;;;;2.73;1.60;;;;;;;;;;6187699;28;20252;-58
2024/01/29 03:43:43;;;;;;;1.80;1.70;;;;;;;;;;6177197;28;20600;-59
2024/01/29 03:46:47;;;;;;;2.30;1.90;;;;;;;;;;6188431;28;20385;-57
2024/01/29 03:49:51;;;;;;;1.60;1.60;;;;;;;;;;6187569;28;20482;-57
2024/01/29 03:52:55;;;;;;;2.03;1.63;;;;;;;;;;6188036;28;20297;-57
2024/01/29 03:56:00;;;;;;;1.83;1.50;;;;;;;;;;6188701;28;20256;-56
2024/01/29 03:59:10;;;;;;;3.90;1.73;;;;;;;;;;6188027;28;20297;-57
2024/01/29 04:02:14;;;;;;;2.47;2.00;;;;;;;;;;6185935;28;20285;-58
2024/01/29 04:05:19;;;;;;;3.00;1.80;;;;;;;;;;6187044;28;20305;-58
2024/01/29 04:08:23;;;;;;;1.53;1.50;;;;;;;;;;6186688;28;20493;-57
2024/01/29 04:11:28;;;;;;;2.70;1.90;;;;;;;;;;6187914;28;20297;-58
2024/01/29 04:14:32;;;;;;;2.63;2.07;;;;;;;;;;6187494;28;20477;-58
2024/01/29 04:17:36;;;;;;;2.97;2.27;;;;;;;;;;6187778;28;20454;-57
2024/01/29 04:20:40;;;;;;;1.57;1.43;;;;;;;;;;6187357;28;20294;-57
2024/01/29 04:23:44;;;;;;;5.20;2.00;;;;;;;;;;6187212;28;20305;-58
2024/01/29 04:26:49;;;;;;;3.77;2.17;;;;;;;;;;6187864;28;20296;-59
2024/01/29 04:29:54;;;;;;;1.53;1.43;;;;;;;;;;6186424;28;20338;-58
2024/01/29 04:32:58;;;;;;;2.03;1.87;;;;;;;;;;6187101;28;20285;-58
2024/01/29 04:36:02;;;;;;;3.73;1.90;;;;;;;;;;6187227;28;20296;-59
2024/01/29 04:39:06;;;;;;;5.07;1.90;;;;;;;;;;6186953;28;20300;-59
2024/01/29 04:42:11;;;;;;;3.70;1.60;;;;;;;;;;6187556;28;20300;-58
2024/01/29 04:45:15;;;;;;;2.37;1.80;;;;;;;;;;6186856;28;20304;-59
2024/01/29 04:48:20;;;;;;;5.00;1.70;;;;;;;;;;6186287;28;20305;-59
2024/01/29 04:51:25;;;;;;;2.50;1.63;;;;;;;;;;6187319;28;20301;-57
2024/01/29 04:54:30;;;;;;;3.60;1.90;;;;;;;;;;6186821;28;20305;-58
2024/01/29 04:57:35;;;;;;;4.67;1.93;;;;;;;;;;6189026;28;20305;-58
2024/01/29 05:00:39;;;;;;;3.63;1.70;;;;;;;;;;6186203;28;20297;-59
2024/01/29 05:03:44;;;;;;;1.97;1.80;;;;;;;;;;6186281;28;20301;-58
2024/01/29 05:06:52;;;;;;;2.10;1.77;;;;;;;;;;6185966;28;20309;-58
2024/01/29 05:09:56;;;;;;;2.50;1.97;;;;;;;;;;6186223;28;20296;-58
2024/01/29 05:13:01;;;;;;;6.47;2.27;;;;;;;;;;6186086;28;20297;-57
2024/01/29 05:16:06;;;;;;;5.53;1.90;;;;;;;;;;6186454;28;20461;-57
2024/01/29 05:19:10;;;;;;;2.67;1.80;;;;;;;;;;6184714;28;20306;-58
2024/01/29 05:22:14;;;;;;;2.90;1.70;;;;;;;;;;6185737;28;20601;-58
2024/01/29 05:25:19;;;;;;;3.90;2.10;;;;;;;;;;6184679;28;20617;-57
2024/01/29 05:28:24;;;;;;;2.87;1.63;;;;;;;;;;6185709;28;20297;-57
2024/01/29 05:31:28;;;;;;;3.70;2.23;;;;;;;;;;6185690;28;20294;-57
2024/01/29 05:34:32;;;;;;;2.07;1.87;;;;;;;;;;6184292;28;20393;-58
2024/01/29 05:37:36;;;;;;;3.60;1.90;;;;;;;;;;6186061;28;20305;-59
2024/01/29 05:40:40;;;;;;;3.23;1.83;;;;;;;;;;6184471;28;20294;-58
2024/01/29 05:43:45;;;;;;;3.20;1.63;;;;;;;;;;6185283;28;20633;-59
2024/01/29 05:46:49;;;;;;;3.60;1.77;;;;;;;;;;6186199;28;20302;-58
2024/01/29 05:49:53;;;;;;;3.17;1.67;;;;;;;;;;6185011;28;20382;-57
2024/01/29 05:52:57;;;;;;;1.80;1.80;;;;;;;;;;6185240;28;20477;-58
2024/01/29 05:56:01;;;;;;;2.00;1.90;;;;;;;;;;6185560;28;20471;-58
2024/01/29 05:59:06;;;;;;;3.93;1.83;;;;;;;;;;6185503;28;20350;-57
2024/01/29 06:02:10;;;;;;;4.57;1.97;;;;;;;;;;6185395;28;20301;-57
2024/01/29 06:05:14;;;;;;;3.70;2.00;;;;;;;;;;6184774;28;20302;-59
2024/01/29 06:08:19;;;;;;;3.63;1.90;;;;;;;;;;6167118;28;20297;-58
2024/01/29 06:11:22;;;;;;;2.87;1.93;;;;;;;;;;6184279;28;20358;-58
2024/01/29 06:14:28;;;;;;;7.73;1.90;;;;;;;;;;6184876;28;20296;-57
2024/01/29 06:17:32;;;;;;;13.63;2.30;;;;;;;;;;6185220;28;20289;-59
2024/01/29 06:20:36;;;;;;;3.47;2.07;;;;;;;;;;6184673;28;20301;-59
2024/01/29 06:23:40;;;;;;;2.70;2.50;;;;;;;;;;6184243;28;20320;-60
2024/01/29 06:26:44;;;;;;;5.53;2.00;;;;;;;;;;6185052;28;20304;-58
2024/01/29 06:29:53;;;;;;;7.63;2.00;;;;;;;;;;6184721;28;20294;-57
2024/01/29 06:32:57;;;;;;;3.93;2.23;;;;;;;;;;6184891;28;20293;-57
2024/01/29 06:36:01;;;;;;;4.60;2.37;;;;;;;;;;6183631;28;20302;-60
2024/01/29 06:39:07;;;;;;;10.40;2.43;;;;;;;;;;6184541;28;20311;-58
2024/01/29 06:42:11;;;;;;;5.13;2.20;;;;;;;;;;6185169;28;20305;-58
2024/01/29 06:45:16;;;;;;;4.97;2.60;;;;;;;;;;6184550;28;20302;-58
2024/01/29 06:48:20;;;;;;;5.57;2.30;;;;;;;;;;6183987;28;20381;-60
2024/01/29 06:51:24;;;;;;;6.83;2.50;;;;;;;;;;6185064;28;20290;-58
2024/01/29 06:54:28;;;;;;;9.13;2.30;;;;;;;;;;6184270;28;20297;-59
2024/01/29 06:57:32;;;;;;;6.47;2.57;;;;;;;;;;6185280;28;20302;-59
2024/01/29 07:00:38;;;;;;;5.43;2.20;;;;;;;;;;6184566;28;20299;-57
2024/01/29 07:03:42;;;;;;;6.67;2.53;;;;;;;;;;6183957;28;20299;-59
2024/01/29 07:06:46;;;;;;;3.83;2.30;;;;;;;;;;6184585;28;20582;-58
2024/01/29 07:09:52;;;;;;;2.77;2.40;;;;;;;;;;6184006;28;20592;-58
2024/01/29 07:12:56;;;;;;;7.80;2.97;;;;;;;;;;6183932;28;20492;-58
2024/01/29 07:16:02;;;;;;;6.27;2.70;;;;;;;;;;6184574;28;20297;-57
2024/01/29 07:19:07;;;;;;;5.10;2.33;;;;;;;;;;6183734;28;20296;-57
2024/01/29 07:22:18;;;;;;;4.47;2.50;;;;;;;;;;6184198;28;20302;-58
2024/01/29 07:25:22;;;;;;;4.30;2.30;;;;;;;;;;6184096;28;20303;-57
2024/01/29 07:28:26;;;;;;;6.20;3.00;;;;;;;;;;6184222;28;20505;-58
2024/01/29 07:31:31;;;;;;;4.90;2.40;;;;;;;;;;6184506;28;20296;-56
2024/01/29 07:34:36;;;;;;;9.97;2.50;;;;;;;;;;6186269;28;20298;-58
2024/01/29 07:37:40;;;;;;;4.00;2.30;;;;;;;;;;6184061;28;20308;-60
2024/01/29 07:40:44;;;;;;;5.10;2.30;;;;;;;;;;6183862;28;20297;-58
2024/01/29 07:43:49;;;;;;;7.67;3.10;;;;;;;;;;6183962;28;20292;-60
2024/01/29 07:46:55;;;;;;;4.93;2.50;;;;;;;;;;6184749;28;20299;-59
2024/01/29 07:49:59;;;;;;;7.03;2.40;;;;;;;;;;6183672;28;20301;-58
2024/01/29 07:53:03;;;;;;;5.23;2.53;;;;;;;;;;6183985;28;20293;-58
2024/01/29 07:56:10;;;;;;;5.17;2.43;;;;;;;;;;6184268;28;20293;-57
2024/01/29 07:59:14;;;;;;;4.83;2.60;;;;;;;;;;6183687;28;20305;-58
2024/01/29 08:02:19;;;;;;;5.20;2.10;;;;;;;;;;6184229;28;20298;-58
2024/01/29 08:05:23;;;;;;;4.30;2.10;;;;;;;;;;6186059;28;20301;-59
2024/01/29 08:08:28;;;;;;;5.60;2.30;;;;;;;;;;6188094;28;20580;-58
2024/01/29 08:11:33;;;;;;;4.57;2.70;;;;;;;;;;6188355;28;20301;-58
2024/01/29 08:14:37;;;;;;;5.57;2.50;;;;;;;;;;6187522;28;20551;-57
2024/01/29 08:17:42;;;;;;;5.87;2.30;;;;;;;;;;6187924;28;20295;-59
2024/01/29 08:20:47;;;;;;;5.37;2.67;;;;;;;;;;6187099;28;20301;-57
2024/01/29 08:23:51;;;;;;;4.77;2.33;;;;;;;;;;6187145;28;20309;-58
2024/01/29 08:26:55;;;;;;;2.37;2.17;;;;;;;;;;6188290;28;20294;-59
2024/01/29 08:29:59;;;;;;;5.17;2.30;;;;;;;;;;6187061;28;20305;-59
2024/01/29 08:33:05;;;;;;;6.70;2.70;;;;;;;;;;6187318;28;20307;-58
2024/01/29 08:36:09;;;;;;;9.77;2.50;;;;;;;;;;6187397;28;20289;-57
2024/01/29 08:39:13;;;;;;;8.77;3.00;;;;;;;;;;6187019;28;20497;-59
2024/01/29 08:42:17;;;;;;;5.57;2.97;;;;;;;;;;6187709;28;20290;-57
2024/01/29 08:45:21;;;;;;;4.33;2.43;;;;;;;;;;6186762;28;20281;-60
2024/01/29 08:48:26;;;;;;;8.63;2.37;;;;;;;;;;6186808;28;20484;-58
2024/01/29 08:51:30;;;;;;;5.27;2.47;;;;;;;;;;6186975;28;20309;-59
2024/01/29 08:54:34;;;;;;;4.63;2.37;;;;;;;;;;6186445;28;20435;-59
2024/01/29 08:57:38;;;;;;;4.57;2.20;;;;;;;;;;6187032;28;20396;-57
2024/01/29 09:00:42;;;;;;;3.30;2.30;;;;;;;;;;6186370;28;20483;-59
2024/01/29 09:03:48;;;;;;;3.17;2.27;;;;;;;;;;6186470;28;20300;-58
2024/01/29 09:06:53;;;;;;;3.93;2.47;;;;;;;;;;6184855;28;20478;-59
2024/01/29 09:09:57;;;;;;;2.87;2.47;;;;;;;;;;6186529;28;20301;-59
2024/01/29 09:13:01;;;;;;;8.27;2.47;;;;;;;;;;6186253;28;20301;-58
2024/01/29 09:16:06;;;;;;;2.07;1.97;;;;;;;;;;6186368;28;20304;-58
2024/01/29 09:19:11;;;;;;;4.77;2.23;;;;;;;;;;6185928;28;20554;-58
2024/01/29 09:22:15;;;;;;;2.60;2.40;;;;;;;;;;6186272;28;20305;-58
2024/01/29 09:25:20;;;;;;;5.27;2.10;;;;;;;;;;6185695;28;20316;-59
2024/01/29 09:28:23;;;;;;;4.00;2.50;;;;;;;;;;6186328;28;20300;-59
2024/01/29 09:31:27;;;;;;;5.43;2.30;;;;;;;;;;6186190;28;20298;-58
2024/01/29 09:34:33;;;;;;;3.63;2.10;;;;;;;;;;6185950;28;20493;-58
2024/01/29 09:37:39;;;;;;;6.53;2.40;;;;;;;;;;6186363;28;20293;-58
2024/01/29 09:40:44;;;;;;;2.10;1.90;;;;;;;;;;6185573;28;20602;-58
2024/01/29 09:43:48;;;;;;;4.07;2.30;;;;;;;;;;6184669;28;20298;-59
2024/01/29 09:46:52;;;;;;;4.87;2.10;;;;;;;;;;6186227;28;20297;-57
2024/01/29 09:49:58;;;;;;;4.07;2.23;;;;;;;;;;6185641;28;20313;-58
2024/01/29 09:53:02;;;;;;;6.57;2.27;;;;;;;;;;6185185;28;20289;-58
2024/01/29 09:56:06;;;;;;;2.97;2.03;;;;;;;;;;6187840;28;20289;-58
2024/01/29 09:59:11;;;;;;;4.53;2.37;;;;;;;;;;6185397;28;20297;-57
2024/01/29 10:02:15;;;;;;;4.60;1.97;;;;;;;;;;6185667;28;20293;-59
2024/01/29 10:05:21;;;;;;;1.98;1.88;;;;;;;;;;6185102;28;20476;-58
2024/01/29 10:08:25;;;;;;;4.00;2.30;;;;;;;;;;6184794;28;20296;-58
2024/01/29 10:11:29;;;;;;;3.35;2.20;;;;;;;;;;6185386;28;20337;-58
2024/01/29 10:14:33;;;;;;;4.00;1.93;;;;;;;;;;6184949;28;20300;-58
2024/01/29 10:17:37;;;;;;;3.23;1.90;;;;;;;;;;6185171;28;20301;-58
2024/01/29 10:20:43;;;;;;;2.40;2.20;;;;;;;;;;6184882;28;20297;-58
2024/01/29 10:23:55;;;;;;;2.42;1.77;;;;;;;;;;6184677;28;20289;-58
2024/01/29 10:27:06;;;;;;;5.27;1.80;;;;;;;;;;6184652;28;20294;-59
2024/01/29 10:30:10;;;;;;;7.30;2.10;;;;;;;;;;6184556;28;20290;-58
2024/01/29 10:33:15;;;;;;;2.05;1.75;;;;;;;;;;6166605;28;20305;-56
2024/01/29 10:36:21;;;;;;;4.70;1.98;;;;;;;;;;6184442;28;20563;-59
2024/01/29 10:39:26;;;;;;;3.00;1.83;;;;;;;;;;6184558;28;20298;-59
2024/01/29 10:42:30;;;;;;;4.30;2.00;;;;;;;;;;6185425;28;20301;-59
2024/01/29 10:45:39;;;;;;;6.65;2.22;;;;;;;;;;6184825;28;20317;-57
2024/01/29 10:48:44;;;;;;;2.43;2.20;;;;;;;;;;6184529;28;20294;-59
2024/01/29 10:51:51;;;;;;;5.10;2.22;;;;;;;;;;6185090;28;20289;-58
2024/01/29 10:54:57;;;;;;;4.38;2.40;;;;;;;;;;6184438;28;20289;-59
2024/01/29 10:58:02;;;;;;;5.85;2.38;;;;;;;;;;6184401;28;20290;-57
2024/01/29 11:01:06;;;;;;;2.90;2.35;;;;;;;;;;6185020;28;20607;-59
2024/01/29 11:04:11;;;;;;;2.65;2.45;;;;;;;;;;6184361;28;20334;-60
2024/01/29 11:07:19;;;;;;;6.95;2.33;;;;;;;;;;6185088;28;20297;-61
2024/01/29 11:10:23;;;;;;;2.50;2.30;;;;;;;;;;6184403;28;20319;-60
2024/01/29 11:13:29;;;;;;;8.05;3.05;;;;;;;;;;6166560;28;20301;-57
2024/01/29 11:16:33;;;;;;;3.00;2.40;;;;;;;;;;6184845;28;20293;-58
2024/01/29 11:19:37;;;;;;;7.40;2.92;;;;;;;;;;6184219;28;20419;-58
2024/01/29 11:22:50;;;;;;;2.70;2.50;;;;;;;;;;6184134;28;20297;-58
2024/01/29 11:25:54;;;;;;;5.50;2.40;;;;;;;;;;6184164;28;20310;-57
2024/01/29 11:29:02;;;;;;;2.92;2.70;;;;;;;;;;6184059;28;20385;-59
2024/01/29 11:32:07;;;;;;;3.20;2.90;;;;;;;;;;6174436;28;20298;-57
2024/01/29 11:35:14;;;;;;;5.07;2.83;;;;;;;;;;6182304;28;20285;-58
2024/01/29 11:38:23;;;;;;;3.95;3.53;;;;;;;;;;6183928;28;20306;-58
2024/01/29 11:41:27;;;;;;;8.93;3.67;;;;;;;;;;6188660;28;20289;-56
2024/01/29 11:44:32;;;;;;;7.18;3.58;;;;;;;;;;6188757;28;20389;-59
2024/01/29 11:47:36;;;;;;;9.90;3.50;;;;;;;;;;6189309;28;20290;-58
2024/01/29 11:50:41;;;;;;;7.30;3.25;;;;;;;;;;6188422;28;20297;-58
2024/01/29 11:53:51;;;;;;;14.27;3.90;;;;;;;;;;6188497;28;20570;-59
2024/01/29 11:56:55;;;;;;;5.72;3.20;;;;;;;;;;6189397;28;20548;-58
2024/01/29 12:00:02;;;;;;;9.85;3.60;;;;;;;;;;6176163;28;20301;-59
2024/01/29 12:03:08;;;;;;;6.68;3.67;;;;;;;;;;6188647;28;20297;-59
2024/01/29 12:06:12;;;;;;;5.57;3.65;;;;;;;;;;6188719;28;20313;-58
2024/01/29 12:09:17;;;;;;;9.65;4.15;;;;;;;;;;6187984;28;20294;-59
2024/01/29 12:12:21;;;;;;;8.95;3.90;;;;;;;;;;6187561;28;20306;-59
2024/01/29 12:15:26;;;;;;;8.50;4.25;;;;;;;;;;6187735;28;20317;-60
2024/01/29 12:18:31;;;;;;;6.78;4.13;;;;;;;;;;6187310;28;20303;-59
2024/01/29 12:21:36;;;;;;;6.00;3.78;;;;;;;;;;6188289;28;20301;-60
2024/01/29 12:24:41;;;;;;;8.38;4.35;;;;;;;;;;6163445;28;20294;-58
2024/01/29 12:27:45;;;;;;;9.27;4.28;;;;;;;;;;6140250;29;20572;-57
2024/01/29 12:30:53;;;;;;;10.82;3.88;;;;;;;;;;6139929;29;20303;-58
2024/01/29 12:33:58;;;;;;;6.30;4.07;;;;;;;;;;6139780;29;20354;-58
2024/01/29 12:37:02;;;;;;;11.90;4.22;;;;;;;;;;6138731;29;20326;-58
2024/01/29 12:40:16;;;;;;;10.57;4.10;;;;;;;;;;6139529;29;20307;-59
2024/01/29 12:43:26;;;;;;;9.20;4.15;;;;;;;;;;6139518;29;20302;-58
2024/01/29 12:46:30;;;;;;;4.53;3.95;;;;;;;;;;6140051;29;20604;-58
2024/01/29 12:49:34;;;;;;;5.47;4.10;;;;;;;;;;6139135;29;20295;-59
2024/01/29 12:52:38;;;;;;;4.40;3.90;;;;;;;;;;6139647;29;20295;-59
2024/01/29 12:55:44;;;;;;;6.57;3.92;;;;;;;;;;6139232;29;20296;-58
2024/01/29 12:58:48;;;;;;;8.18;4.43;;;;;;;;;;6139277;29;20295;-59
2024/01/29 13:01:53;;;;;;;9.20;4.80;;;;;;;;;;6139617;29;20295;-59
2024/01/29 13:04:57;;;;;;;8.82;4.72;;;;;;;;;;6138936;29;20291;-59
2024/01/29 13:08:02;;;;;;;10.15;4.50;;;;;;;;;;6139047;29;20294;-60
2024/01/29 13:11:07;;;;;;;8.80;4.43;;;;;;;;;;6152287;28;20390;-59
2024/01/29 13:14:12;;;;;;;11.85;4.57;;;;;;;;;;6162300;28;20330;-58
2024/01/29 13:17:17;;;;;;;4.90;4.07;;;;;;;;;;6162810;28;20286;-59
2024/01/29 13:20:21;;;;;;;7.85;4.35;;;;;;;;;;6162306;28;20294;-59
2024/01/29 13:23:25;;;;;;;8.55;4.07;;;;;;;;;;6170235;28;20293;-59
2024/01/29 13:26:31;;;;;;;8.02;4.32;;;;;;;;;;6186826;28;20568;-59
2024/01/29 13:29:36;;;;;;;9.27;4.28;;;;;;;;;;6186250;28;20294;-59
2024/01/29 13:32:39;;;;;;;8.52;4.45;;;;;;;;;;6186694;28;20298;-58
2024/01/29 13:35:43;;;;;;;12.43;4.45;;;;;;;;;;6185917;28;20289;-59
2024/01/29 13:38:48;;;;;;;10.55;4.50;;;;;;;;;;6185636;28;20310;-59
2024/01/29 13:41:53;;;;;;;13.18;4.88;;;;;;;;;;6186321;28;20294;-58
2024/01/29 13:44:57;;;;;;;9.68;4.30;;;;;;;;;;6185738;28;20594;-61
2024/01/29 13:48:05;;;;;;;10.07;5.15;;;;;;;;;;6185447;28;20290;-58
2024/01/29 13:51:09;;;;;;;10.95;4.47;;;;;;;;;;6186287;28;20299;-58
2024/01/29 13:54:13;;;;;;;5.50;3.83;;;;;;;;;;6185292;28;20297;-60
2024/01/29 13:57:18;;;;;;;5.05;4.13;;;;;;;;;;6159468;28;20293;-59
2024/01/29 14:00:22;;;;;;;9.80;4.38;;;;;;;;;;6184543;28;20297;-56
2024/01/29 14:03:26;;;;;;;5.97;4.25;;;;;;;;;;6184433;28;20392;-58
2024/01/29 14:06:30;;;;;;;6.07;4.32;;;;;;;;;;6185891;28;20294;-58
2024/01/29 14:09:35;;;;;;;7.85;4.47;;;;;;;;;;6185098;28;20301;-57
2024/01/29 14:12:40;;;;;;;10.15;4.38;;;;;;;;;;6185517;28;20454;-58
2024/01/29 14:15:44;;;;;;;10.68;4.47;;;;;;;;;;6185373;28;20289;-58
2024/01/29 14:18:49;;;;;;;11.07;4.10;;;;;;;;;;6185148;28;20268;-59
2024/01/29 14:21:53;;;;;;;6.35;3.90;;;;;;;;;;6185522;28;20586;-59
2024/01/29 14:24:57;;;;;;;7.75;4.25;;;;;;;;;;6184741;28;20379;-59
2024/01/29 14:28:03;;;;;;;9.68;4.30;;;;;;;;;;6184922;28;20301;-59
2024/01/29 14:31:07;;;;;;;7.07;4.88;;;;;;;;;;6184579;28;20385;-58
2024/01/29 14:34:13;;;;;;;8.52;4.75;;;;;;;;;;6184583;28;20357;-59
2024/01/29 14:37:17;;;;;;;14.43;5.05;;;;;;;;;;6185118;28;20546;-57
2024/01/29 14:40:21;;;;;;;9.88;5.03;;;;;;;;;;6184222;28;20314;-59
2024/01/29 14:43:26;;;;;;;9.65;4.75;;;;;;;;;;6184240;28;20301;-58
2024/01/29 14:46:30;;;;;;;10.43;5.45;;;;;;;;;;6185018;28;20570;-59
2024/01/29 14:49:35;;;;;;;7.63;4.40;;;;;;;;;;6184358;28;20289;-58
2024/01/29 14:52:39;;;;;;;11.95;5.18;;;;;;;;;;6185850;28;20302;-58
2024/01/29 14:55:43;;;;;;;9.02;4.90;;;;;;;;;;6184225;28;20286;-57
2024/01/29 14:58:48;;;;;;;13.57;5.20;;;;;;;;;;6184257;28;20292;-58
2024/01/29 15:01:55;;;;;;;11.25;5.03;;;;;;;;;;6184386;28;20293;-58
2024/01/29 15:04:59;;;;;;;11.10;5.35;;;;;;;;;;6184237;28;20292;-58
2024/01/29 15:08:04;;;;;;;11.38;5.15;;;;;;;;;;6184152;28;20293;-59
2024/01/29 15:11:10;;;;;;;16.10;5.57;;;;;;;;;;6184644;28;20606;-58
2024/01/29 15:14:15;;;;;;;13.82;5.30;;;;;;;;;;6186537;28;20298;-59
2024/01/29 15:17:20;;;;;;;11.48;5.38;;;;;;;;;;6189449;28;20297;-58
2024/01/29 15:20:24;;;;;;;11.65;6.25;;;;;;;;;;6188999;28;20304;-58
2024/01/29 15:23:28;;;;;;;13.70;5.47;;;;;;;;;;6188717;28;20414;-59
2024/01/29 15:26:32;;;;;;;13.30;6.20;;;;;;;;;;6189375;28;20298;-59
2024/01/29 15:29:38;;;;;;;16.63;5.57;;;;;;;;;;6188730;28;20298;-59
2024/01/29 15:32:41;;;;;;;11.65;6.28;;;;;;;;;;6190928;28;20294;-58
2024/01/29 15:35:45;;;;;;;14.57;6.22;;;;;;;;;;6188646;28;20305;-59
2024/01/29 15:38:49;;;;;;;17.40;6.45;;;;;;;;;;6188613;28;20285;-58
2024/01/29 15:41:53;;;;;;;15.93;5.72;;;;;;;;;;6188826;28;20305;-58
2024/01/29 15:44:59;;;;;;;15.95;6.10;;;;;;;;;;6188400;28;20306;-59
2024/01/29 15:48:03;;;;;;;8.60;5.60;;;;;;;;;;6188313;28;20290;-59
2024/01/29 15:51:07;;;;;;;16.17;6.10;;;;;;;;;;6188959;28;20290;-60
2024/01/29 15:54:11;;;;;;;15.85;5.63;;;;;;;;;;6188827;28;20305;-58
2024/01/29 15:57:15;;;;;;;14.30;6.38;;;;;;;;;;6188494;28;20333;-59
2024/01/29 16:00:21;;;;;;;17.25;5.70;;;;;;;;;;6187416;28;20298;-60
2024/01/29 16:03:25;;;;;;;12.85;5.93;;;;;;;;;;6177106;28;20297;-59
2024/01/29 16:06:29;;;;;;;10.65;5.78;;;;;;;;;;6188942;28;20476;-58
2024/01/29 16:09:33;;;;;;;15.15;5.88;;;;;;;;;;6187786;28;20295;-58
2024/01/29 16:12:38;;;;;;;11.60;5.32;;;;;;;;;;6188291;28;20294;-59
2024/01/29 16:15:44;;;;;;;18.27;6.28;;;;;;;;;;6187607;28;20297;-59
2024/01/29 16:18:49;;;;;;;15.10;5.93;;;;;;;;;;6187581;28;20285;-59
2024/01/29 16:21:53;;;;;;;11.18;6.00;;;;;;;;;;6187454;28;20285;-58
2024/01/29 16:24:57;;;;;;;18.33;5.90;;;;;;;;;;6186572;28;20342;-59
2024/01/29 16:28:01;;;;;;;7.43;5.28;;;;;;;;;;6186888;28;20427;-59
2024/01/29 16:31:07;;;;;;;10.88;5.40;;;;;;;;;;6175969;28;20606;-58
2024/01/29 16:34:11;;;;;;;12.82;6.20;;;;;;;;;;6162678;28;20488;-58
2024/01/29 16:37:15;;;;;;;10.73;5.80;;;;;;;;;;6163794;29;20294;-57
2024/01/29 16:40:21;;;;;;;16.00;6.40;;;;;;;;;;6163227;28;20298;-59
2024/01/29 16:43:25;;;;;;;12.00;5.78;;;;;;;;;;6162905;29;20299;-57
2024/01/29 16:46:31;;;;;;;12.95;5.80;;;;;;;;;;6163466;29;20471;-59
2024/01/29 16:49:35;;;;;;;16.88;5.93;;;;;;;;;;6162450;29;20294;-59
2024/01/29 16:52:39;;;;;;;13.48;6.03;;;;;;;;;;6163114;29;20347;-58
2024/01/29 16:55:43;;;;;;;15.90;6.93;;;;;;;;;;6162754;29;20302;-58
2024/01/29 16:58:47;;;;;;;11.32;5.53;;;;;;;;;;6162451;28;20476;-58
2024/01/29 17:01:52;;;;;;;11.52;5.68;;;;;;;;;;6162802;29;20290;-58
2024/01/29 17:04:56;;;;;;;18.35;6.10;;;;;;;;;;6163031;29;20490;-59
2024/01/29 17:08:03;;;;;;;12.25;5.93;;;;;;;;;;6162476;28;20303;-59
2024/01/29 17:11:09;;;;;;;13.82;5.85;;;;;;;;;;6163158;28;20294;-59
2024/01/29 17:14:13;;;;;;;14.43;6.25;;;;;;;;;;6162945;28;20563;-56
2024/01/29 17:17:18;;;;;;;11.45;6.25;;;;;;;;;;6163434;28;20307;-57
2024/01/29 17:20:23;;;;;;;12.30;6.40;;;;;;;;;;6163873;28;20295;-57
2024/01/29 17:23:27;;;;;;;10.32;5.70;;;;;;;;;;6162288;28;20310;-59
2024/01/29 17:26:31;;;;;;;15.73;6.22;;;;;;;;;;6168949;28;20309;-59
2024/01/29 17:29:36;;;;;;;10.35;6.28;;;;;;;;;;6186843;28;20327;-57
2024/01/29 17:32:42;;;;;;;14.13;6.15;;;;;;;;;;6186442;28;20293;-58
2024/01/29 17:35:46;;;;;;;14.18;6.20;;;;;;;;;;6185944;28;20293;-58
2024/01/29 17:38:50;;;;;;;8.35;5.55;;;;;;;;;;6186049;28;20298;-59
2024/01/29 17:41:56;;;;;;;17.88;6.47;;;;;;;;;;6186272;28;20294;-56
2024/01/29 17:45:00;;;;;;;13.20;5.63;;;;;;;;;;6185941;28;20310;-59
2024/01/29 17:48:07;;;;;;;9.43;5.85;;;;;;;;;;6186205;28;20313;-59
2024/01/29 17:51:11;;;;;;;7.78;5.20;;;;;;;;;;6186336;28;20593;-57
2024/01/29 17:54:19;;;;;;;9.68;6.22;;;;;;;;;;6185481;28;20294;-58
2024/01/29 17:57:23;;;;;;;15.07;6.28;;;;;;;;;;6185261;28;20293;-58
2024/01/29 18:00:28;;;;;;;8.07;5.45;;;;;;;;;;6184993;28;20294;-58
2024/01/29 18:03:33;;;;;;;14.77;6.05;;;;;;;;;;6185553;28;20294;-58
2024/01/29 18:06:46;;;;;;;13.48;5.57;;;;;;;;;;6185819;28;23391;-59
2024/01/29 18:09:50;;;;;;;12.60;6.28;;;;;;;;;;6185062;28;20590;-58
2024/01/29 18:12:54;;;;;;;8.85;6.40;;;;;;;;;;6184412;28;20294;-60
2024/01/29 18:15:59;;;;;;;15.00;6.43;;;;;;;;;;6185526;28;20313;-58
2024/01/29 18:19:05;;;;;;;14.02;6.43;;;;;;;;;;6185114;28;20285;-59
2024/01/29 18:22:10;;;;;;;12.07;6.38;;;;;;;;;;6185788;28;20293;-60
2024/01/29 18:25:14;;;;;;;13.10;6.38;;;;;;;;;;6181137;28;20614;-58